Airfield :
LOGIN :

Register | Disclaimer

   EN    FR    IT 

 










Legend :    VFR   Marginal VFR   IFR   Intensive IFR   Very Intensive IFR
Visi :
Ceiling :
>= 8 km
>= 3000ft
5 to 8 km
1000 to 3000 ft
1500m to 5 km
500 to 1000 ft
800 to 1500m
200 to 500 ft
< 800m
< 200 ft
Symbols :   Thunderstorms  Fog  Heavy snow  Heavy precipitations  Wind > 20 kt
SIGMETs :     Misc.  Thunderstorms  Icing  Turbulence  Mountain Waves  Volcanic Ashes







- Airport Elevation : 40 ft
- IATA code : RMI


LIPR - Federico Fellini Int. Rimini

EXPIRED METARs :
  • 241415Z 09011KT CAVOK 30/24 Q1013
  • 241345Z 08010KT CAVOK 30/24 Q1013
  • 241315Z 08011KT CAVOK 31/24 Q1013
  • 241245Z 08011KT CAVOK 31/23 Q1013
  • 241215Z 08011KT CAVOK 31/21 Q1014
  • 241145Z 08011KT CAVOK 31/22 Q1014

Expired Forecast.
No reported NOTAMs for that airfield.
3 SIGMETs reported for the Milano FIR (LIMM) :
 
Severe turbulence
LIMM SIGMET 19 VALID 251830/252130 LIMM- LIMM MILANO FIR SEV TURB OBS E OF LINE N4706 E01146 - N4327 E01217 FL270/420 MOV E NC=
Embedded thunderstorms
LIMM SIGMET 18 VALID 251700/251900 LIMM- LIMM MILANO FIR EMBD TS OBS WI N4519 E01033 - N4440 E01230 - N4336 E01214 - N4327 E01431 - N4516 E01259 - N4536 E01354 - N4559 E01333 - N4531 E01215 - N4516 E01152 - N4519 E01033 TOP FL400 MOV E NC=
Severe turbulence
LIMM SIGMET 17 VALID 251630/251830 LIMM- LIMM MILANO FIR SEV TURB OBS E OF LINE N4641 E01005 - N4328 E01219 FL270/420 MOV E NC=



MET'MAP, your aeronautical weather chart ! - Copyright ORBIFLY December 2007 - Disclaimer

ORBIFLY MET'MAP TEAM :

Programming & Development : Alexandra Zaïnal
Concept & Development : Baudouin d'Aumeries
Co-Development & Prog : Marc-Olivier Méhu
Technical & hardware support : Manuel Goepfert

Contact : metmap@orbifly.com




SOURCES & CREDITS :

   NOAA